Time;durP1;ratioP1;P1;durP2;ratioP2;P2;SDS_P1;SDS_P2;PMS_P1;PMS_P2;Temp;Humidity;BMP_temperature;BMP_pressure;BME280_temperature;BME280_humidity;BME280_pressure;Samples;Min_cycle;Max_cycle;Signal;HPM_P1;HPM_P2
2021/07/21 00:00:56;;;;;;;;;;;11.50;99.90;;;;;;5100783;28;19924;-59
2021/07/21 00:03:21;;;;;;;;;;;11.50;99.90;;;;;;5101433;28;19922;-61
2021/07/21 00:05:47;;;;;;;;;;;11.30;99.90;;;;;;5096384;28;19920;-61
2021/07/21 00:08:14;;;;;;;;;;;11.20;99.90;;;;;;5099512;28;19928;-61
2021/07/21 00:10:40;;;;;;;;;;;11.20;99.90;;;;;;5098613;28;19956;-61
2021/07/21 00:16:30;;;;;;;;;;;11.30;99.90;;;;;;5101822;28;20011;-58
2021/07/21 00:21:10;;;;;;;;;;;11.20;99.90;;;;;;5088467;28;19919;-57
2021/07/21 00:23:38;;;;;;;;;;;11.10;99.90;;;;;;5087158;28;19927;-61
2021/07/21 00:26:03;;;;;;;;;;;11.10;99.90;;;;;;5087829;28;20284;-60
2021/07/21 00:28:29;;;;;;;;;;;11.10;99.90;;;;;;5088194;28;19923;-61
2021/07/21 00:30:56;;;;;;;;;;;11.00;99.90;;;;;;5087729;28;19916;-61
2021/07/21 00:33:21;;;;;;;;;;;11.10;99.90;;;;;;5085777;28;19950;-59
2021/07/21 00:35:47;;;;;;;;;;;11.00;99.90;;;;;;5082703;28;20307;-61
2021/07/21 00:38:13;;;;;;;;;;;10.90;99.90;;;;;;5087936;28;19919;-60
2021/07/21 00:40:39;;;;;;;;;;;10.90;99.90;;;;;;5082502;28;20006;-61
2021/07/21 00:43:04;;;;;;;;;;;10.90;99.90;;;;;;5067629;28;20380;-61
2021/07/21 00:45:30;;;;;;;;;;;10.80;99.90;;;;;;5068366;28;19920;-60
2021/07/21 00:47:56;;;;;;;;;;;10.80;99.90;;;;;;5068182;28;19921;-58
2021/07/21 00:50:21;;;;;;;;;;;10.80;99.90;;;;;;5068895;28;20381;-61
2021/07/21 00:52:48;;;;;;;;;;;10.80;99.90;;;;;;5067120;28;20015;-59
2021/07/21 00:55:15;;;;;;;;;;;10.70;99.90;;;;;;5067164;28;20420;-59
2021/07/21 00:57:41;;;;;;;;;;;10.80;99.90;;;;;;5079561;28;19916;-61
2021/07/21 01:00:09;;;;;;;;;;;10.80;99.90;;;;;;5088025;28;19915;-58
2021/07/21 01:02:34;;;;;;;;;;;10.80;99.90;;;;;;5084872;28;19916;-58
2021/07/21 01:05:00;;;;;;;;;;;10.70;99.90;;;;;;5081994;28;19927;-59
2021/07/21 01:07:26;;;;;;;;;;;10.80;99.90;;;;;;5087311;28;20018;-60
2021/07/21 01:09:52;;;;;;;;;;;10.70;99.90;;;;;;5088299;28;20031;-60
2021/07/21 01:12:23;;;;;;;;;;;10.70;99.90;;;;;;5086522;28;20401;-60
2021/07/21 01:15:07;;;;;;;;;;;10.70;99.90;;;;;;5087327;28;20140;-59
2021/07/21 01:17:56;;;;;;;;;;;10.70;99.90;;;;;;5086138;28;19999;-61
2021/07/21 01:20:37;;;;;;;;;;;10.70;99.90;;;;;;5076430;28;19920;-61
2021/07/21 01:23:21;;;;;;;;;;;10.60;99.90;;;;;;5085875;28;19923;-60
2021/07/21 01:25:59;;;;;;;;;;;10.60;99.90;;;;;;5086864;28;19924;-57
2021/07/21 01:28:28;;;;;;;;;;;10.60;99.90;;;;;;5086730;28;20235;-62
2021/07/21 01:30:56;;;;;;;;;;;10.60;99.90;;;;;;5085151;28;19919;-61
2021/07/21 01:33:22;;;;;;;;;;;10.60;99.90;;;;;;5086238;28;20016;-62
2021/07/21 01:35:54;;;;;;;;;;;10.70;99.90;;;;;;5082251;28;19916;-60
2021/07/21 01:38:23;;;;;;;;;;;10.60;99.90;;;;;;5086764;28;19922;-58
2021/07/21 01:40:52;;;;;;;;;;;10.60;99.90;;;;;;5081934;28;20272;-60
2021/07/21 01:43:20;;;;;;;;;;;10.70;99.90;;;;;;5076175;28;20009;-58
2021/07/21 01:45:46;;;;;;;;;;;10.70;99.90;;;;;;5085192;28;20264;-58
2021/07/21 01:48:14;;;;;;;;;;;10.60;99.90;;;;;;5086992;28;20276;-59
2021/07/21 01:50:41;;;;;;;;;;;10.60;99.90;;;;;;5086377;28;19920;-59
2021/07/21 01:53:07;;;;;;;;;;;10.60;99.90;;;;;;5085200;28;19963;-60
2021/07/21 01:55:33;;;;;;;;;;;10.50;99.90;;;;;;5086925;28;19923;-59
2021/07/21 01:57:59;;;;;;;;;;;10.50;99.90;;;;;;5072416;28;20007;-60
2021/07/21 02:00:25;;;;;;;;;;;10.50;99.90;;;;;;5065041;28;20005;-60
2021/07/21 02:02:52;;;;;;;;;;;10.60;99.90;;;;;;5065989;28;20576;-59
2021/07/21 02:05:19;;;;;;;;;;;10.60;99.90;;;;;;5075490;28;20235;-55
2021/07/21 02:07:46;;;;;;;;;;;10.60;99.90;;;;;;5086524;28;19974;-59
2021/07/21 02:10:13;;;;;;;;;;;10.60;99.90;;;;;;5086367;28;20299;-59
2021/07/21 02:12:39;;;;;;;;;;;10.70;99.90;;;;;;5085435;28;19923;-60
2021/07/21 02:15:05;;;;;;;;;;;10.60;99.90;;;;;;5082732;28;20018;-61
2021/07/21 02:17:31;;;;;;;;;;;10.60;99.90;;;;;;5085066;28;20003;-60
2021/07/21 02:19:57;;;;;;;;;;;10.60;99.90;;;;;;5086153;28;19923;-60
2021/07/21 02:22:22;;;;;;;;;;;10.50;99.90;;;;;;5085176;28;19984;-59
2021/07/21 02:24:48;;;;;;;;;;;10.50;99.90;;;;;;5085981;28;19967;-61
2021/07/21 02:27:14;;;;;;;;;;;10.50;99.90;;;;;;5086198;28;19952;-57
2021/07/21 02:29:41;;;;;;;;;;;10.60;99.90;;;;;;5085550;28;19916;-57
2021/07/21 02:32:22;;;;;;;;;;;10.50;99.90;;;;;;5084004;28;19966;-55
2021/07/21 02:34:47;;;;;;;;;;;10.50;99.90;;;;;;5078224;28;19916;-58
2021/07/21 02:37:17;;;;;;;;;;;10.60;99.90;;;;;;5085672;28;20014;-56
2021/07/21 02:39:44;;;;;;;;;;;10.40;99.90;;;;;;5086135;28;19978;-60
2021/07/21 02:42:09;;;;;;;;;;;10.40;99.90;;;;;;5084623;28;19927;-60
2021/07/21 02:44:35;;;;;;;;;;;10.30;99.90;;;;;;5085363;28;19969;-58
2021/07/21 02:47:00;;;;;;;;;;;10.30;99.90;;;;;;5084935;28;19920;-59
2021/07/21 02:49:26;;;;;;;;;;;10.20;99.90;;;;;;5085501;28;19920;-60
2021/07/21 02:51:54;;;;;;;;;;;10.30;99.90;;;;;;5084567;28;19965;-59
2021/07/21 02:54:20;;;;;;;;;;;10.20;99.90;;;;;;5085696;28;19922;-59
2021/07/21 02:56:51;;;;;;;;;;;10.20;99.90;;;;;;5080722;28;19956;-60
2021/07/21 02:59:18;;;;;;;;;;;10.10;99.90;;;;;;5064758;28;19920;-62
2021/07/21 03:01:47;;;;;;;;;;;10.20;99.90;;;;;;5063916;28;19976;-60
2021/07/21 03:04:16;;;;;;;;;;;10.20;99.90;;;;;;5066318;28;20422;-61
2021/07/21 03:06:42;;;;;;;;;;;10.20;99.90;;;;;;5086939;28;19959;-63
2021/07/21 03:09:07;;;;;;;;;;;10.20;99.90;;;;;;5086154;28;19939;-62
2021/07/21 03:11:33;;;;;;;;;;;10.20;99.90;;;;;;5085511;28;19916;-62
2021/07/21 03:14:00;;;;;;;;;;;10.20;99.90;;;;;;5085199;28;19916;-60
2021/07/21 03:16:29;;;;;;;;;;;10.20;99.90;;;;;;5084320;28;19974;-60
2021/07/21 03:18:59;;;;;;;;;;;10.20;99.90;;;;;;5085109;28;19927;-62
2021/07/21 03:21:25;;;;;;;;;;;10.20;99.90;;;;;;5084521;28;19919;-62
2021/07/21 03:23:51;;;;;;;;;;;10.30;99.90;;;;;;5085086;28;19923;-62
2021/07/21 03:26:18;;;;;;;;;;;10.30;99.90;;;;;;5071630;28;19924;-62
2021/07/21 03:28:45;;;;;;;;;;;10.20;99.90;;;;;;5064136;28;19963;-61
2021/07/21 03:31:11;;;;;;;;;;;10.20;99.90;;;;;;5064425;28;20006;-62
2021/07/21 03:33:37;;;;;;;;;;;10.10;99.90;;;;;;5064314;28;20470;-63
2021/07/21 03:36:04;;;;;;;;;;;10.10;99.90;;;;;;5082805;28;19958;-66
2021/07/21 03:38:29;;;;;;;;;;;10.10;99.90;;;;;;5085548;28;20004;-60
2021/07/21 03:40:55;;;;;;;;;;;10.10;99.90;;;;;;5086194;28;19986;-61
2021/07/21 03:43:22;;;;;;;;;;;10.10;99.90;;;;;;5083732;28;19923;-62
2021/07/21 03:45:49;;;;;;;;;;;10.10;99.90;;;;;;5084281;28;19920;-60
2021/07/21 03:48:15;;;;;;;;;;;10.10;99.90;;;;;;5085286;28;19923;-61
2021/07/21 03:50:40;;;;;;;;;;;10.00;99.90;;;;;;5085533;28;19916;-61
2021/07/21 03:53:06;;;;;;;;;;;9.90;99.90;;;;;;5085934;28;20283;-60
2021/07/21 03:55:35;;;;;;;;;;;9.90;99.90;;;;;;5088235;28;19931;-63
2021/07/21 03:58:00;;;;;;;;;;;10.00;99.90;;;;;;5088005;28;19958;-62
2021/07/21 04:00:26;;;;;;;;;;;10.00;99.90;;;;;;5088758;28;19971;-61
2021/07/21 04:02:56;;;;;;;;;;;10.00;99.90;;;;;;5088553;28;19939;-62
2021/07/21 04:05:22;;;;;;;;;;;10.00;99.90;;;;;;5082990;28;20575;-61
2021/07/21 04:07:48;;;;;;;;;;;10.00;99.90;;;;;;5088745;28;19939;-62
2021/07/21 04:10:14;;;;;;;;;;;10.10;99.90;;;;;;5088758;28;19977;-62
2021/07/21 04:12:41;;;;;;;;;;;10.10;99.90;;;;;;5084788;28;19939;-62
2021/07/21 04:15:08;;;;;;;;;;;10.10;99.90;;;;;;5088437;28;19955;-64
2021/07/21 04:17:34;;;;;;;;;;;10.00;99.90;;;;;;5087798;28;19993;-63
2021/07/21 04:20:00;;;;;;;;;;;10.10;99.90;;;;;;5088082;28;20387;-63
2021/07/21 04:22:26;;;;;;;;;;;10.20;99.90;;;;;;5084128;28;19993;-60
2021/07/21 04:24:51;;;;;;;;;;;10.30;99.90;;;;;;5088467;28;19916;-61
2021/07/21 04:27:17;;;;;;;;;;;10.30;99.90;;;;;;5088560;28;19920;-60
2021/07/21 04:29:48;;;;;;;;;;;10.40;99.90;;;;;;5087557;28;19974;-61
2021/07/21 04:32:14;;;;;;;;;;;10.50;99.90;;;;;;5072150;28;20371;-61
2021/07/21 04:34:42;;;;;;;;;;;10.60;99.90;;;;;;5080899;28;19923;-61
2021/07/21 04:37:08;;;;;;;;;;;10.60;99.90;;;;;;5088434;28;19920;-61
2021/07/21 04:39:35;;;;;;;;;;;10.60;99.90;;;;;;5088460;28;19973;-61
2021/07/21 04:42:00;;;;;;;;;;;10.70;99.90;;;;;;5087078;28;19916;-60
2021/07/21 04:44:26;;;;;;;;;;;10.70;99.90;;;;;;5085037;28;19920;-63
2021/07/21 04:46:57;;;;;;;;;;;10.70;99.90;;;;;;5087629;28;20253;-62
2021/07/21 04:49:23;;;;;;;;;;;10.80;99.90;;;;;;5088533;28;20376;-61
2021/07/21 04:51:49;;;;;;;;;;;10.70;99.90;;;;;;5087759;28;19919;-61
2021/07/21 04:54:15;;;;;;;;;;;10.60;99.90;;;;;;5088810;28;19980;-60
2021/07/21 04:56:41;;;;;;;;;;;10.60;99.90;;;;;;5087983;28;19922;-61
2021/07/21 04:59:06;;;;;;;;;;;10.70;99.90;;;;;;5088550;28;20464;-61
2021/07/21 05:01:36;;;;;;;;;;;10.70;99.90;;;;;;5087030;28;19922;-60
2021/07/21 05:04:02;;;;;;;;;;;10.80;99.90;;;;;;5088596;28;19923;-60
2021/07/21 05:06:27;;;;;;;;;;;10.80;99.90;;;;;;5087294;28;19923;-61
2021/07/21 05:08:53;;;;;;;;;;;10.70;99.90;;;;;;5087423;28;19998;-62
2021/07/21 05:11:19;;;;;;;;;;;10.70;99.90;;;;;;5084499;28;19919;-62
2021/07/21 05:13:45;;;;;;;;;;;10.80;99.90;;;;;;5087563;28;19968;-61
2021/07/21 05:16:10;;;;;;;;;;;10.80;99.90;;;;;;5087603;28;20314;-59
2021/07/21 05:18:36;;;;;;;;;;;10.80;99.90;;;;;;5088691;28;19926;-62
2021/07/21 05:21:03;;;;;;;;;;;10.90;99.90;;;;;;5088254;28;19912;-62
2021/07/21 05:23:29;;;;;;;;;;;11.00;99.90;;;;;;5087572;28;19916;-61
2021/07/21 05:25:54;;;;;;;;;;;10.90;99.90;;;;;;5088166;28;19927;-61
2021/07/21 05:28:20;;;;;;;;;;;11.00;99.90;;;;;;5087955;28;19966;-61
2021/07/21 05:30:45;;;;;;;;;;;11.10;99.90;;;;;;5087390;28;20699;-61
2021/07/21 05:33:11;;;;;;;;;;;11.10;99.90;;;;;;5089114;28;20019;-60
2021/07/21 05:35:39;;;;;;;;;;;11.20;99.90;;;;;;5088855;28;19920;-61
2021/07/21 05:38:04;;;;;;;;;;;11.30;99.90;;;;;;5087988;28;19920;-62
2021/07/21 05:40:30;;;;;;;;;;;11.30;99.90;;;;;;5087178;28;20272;-62
2021/07/21 05:42:55;;;;;;;;;;;11.40;99.90;;;;;;5086538;28;19916;-59
2021/07/21 05:45:21;;;;;;;;;;;11.50;99.90;;;;;;5086469;28;19920;-61
2021/07/21 05:47:46;;;;;;;;;;;11.50;99.90;;;;;;5086548;28;20395;-63
2021/07/21 05:50:13;;;;;;;;;;;11.60;99.90;;;;;;5085728;28;20298;-62
2021/07/21 05:52:39;;;;;;;;;;;11.70;99.90;;;;;;5086435;28;19969;-62
2021/07/21 05:55:04;;;;;;;;;;;11.70;99.90;;;;;;5086925;28;20279;-62
2021/07/21 05:57:30;;;;;;;;;;;11.80;99.90;;;;;;5086821;28;19927;-62
2021/07/21 05:59:55;;;;;;;;;;;11.80;99.90;;;;;;5083848;28;19916;-59
2021/07/21 06:02:22;;;;;;;;;;;11.90;99.90;;;;;;5082089;28;20072;-61
2021/07/21 06:04:47;;;;;;;;;;;12.00;99.90;;;;;;5085344;28;19923;-61
2021/07/21 06:07:13;;;;;;;;;;;12.10;99.90;;;;;;5086602;28;19928;-62
2021/07/21 06:09:38;;;;;;;;;;;12.10;99.90;;;;;;5086433;28;19920;-64
2021/07/21 06:12:05;;;;;;;;;;;12.20;99.90;;;;;;5083155;28;19957;-65
2021/07/21 06:14:32;;;;;;;;;;;12.30;99.90;;;;;;5084024;28;19922;-63
2021/07/21 06:16:57;;;;;;;;;;;12.40;99.90;;;;;;5085483;28;19912;-61
2021/07/21 06:19:23;;;;;;;;;;;12.50;99.90;;;;;;5085149;28;20390;-60
2021/07/21 06:21:48;;;;;;;;;;;12.50;99.90;;;;;;5083226;28;19923;-61
2021/07/21 06:24:14;;;;;;;;;;;12.60;99.90;;;;;;5086909;28;20376;-62
2021/07/21 06:26:39;;;;;;;;;;;12.70;99.90;;;;;;5084919;28;19926;-62
2021/07/21 06:29:05;;;;;;;;;;;12.70;99.90;;;;;;5085124;28;20298;-63
2021/07/21 06:31:30;;;;;;;;;;;12.80;99.90;;;;;;5083716;28;19950;-59
2021/07/21 06:33:56;;;;;;;;;;;12.90;99.90;;;;;;5085781;28;19939;-63
2021/07/21 06:36:21;;;;;;;;;;;12.90;99.90;;;;;;5080460;28;19963;-64
2021/07/21 06:38:47;;;;;;;;;;;13.00;99.90;;;;;;5080373;28;19930;-64
2021/07/21 06:41:13;;;;;;;;;;;13.10;99.90;;;;;;5069946;28;19960;-65
2021/07/21 06:43:39;;;;;;;;;;;13.20;99.90;;;;;;5078315;28;19923;-60
2021/07/21 06:46:05;;;;;;;;;;;13.30;99.90;;;;;;5077038;28;20484;-63
2021/07/21 06:48:31;;;;;;;;;;;13.30;99.90;;;;;;5085048;28;19920;-60
2021/07/21 06:50:57;;;;;;;;;;;13.40;99.90;;;;;;5082944;28;19912;-62
2021/07/21 06:53:22;;;;;;;;;;;13.40;99.90;;;;;;5083395;28;19926;-61
2021/07/21 06:55:48;;;;;;;;;;;13.60;99.90;;;;;;5087795;28;19920;-62
2021/07/21 06:58:13;;;;;;;;;;;13.60;99.90;;;;;;5086657;28;19926;-64
2021/07/21 07:00:39;;;;;;;;;;;13.60;99.90;;;;;;5086083;28;19916;-64
2021/07/21 07:03:04;;;;;;;;;;;13.70;99.90;;;;;;5084558;28;19916;-64
2021/07/21 07:05:30;;;;;;;;;;;13.70;99.90;;;;;;5080915;28;19975;-63
2021/07/21 07:07:55;;;;;;;;;;;13.80;99.90;;;;;;5084922;28;19955;-62
2021/07/21 07:10:21;;;;;;;;;;;13.90;99.90;;;;;;5085306;28;20358;-62
2021/07/21 07:12:47;;;;;;;;;;;13.90;99.90;;;;;;5085551;28;19919;-63
2021/07/21 07:15:13;;;;;;;;;;;14.10;99.90;;;;;;5085393;28;19920;-62
2021/07/21 07:17:38;;;;;;;;;;;14.20;99.90;;;;;;5084933;28;19916;-63
2021/07/21 07:20:05;;;;;;;;;;;14.30;99.90;;;;;;5085366;28;20125;-64
2021/07/21 07:22:30;;;;;;;;;;;14.30;99.90;;;;;;5084371;28;20368;-64
2021/07/21 07:24:56;;;;;;;;;;;14.40;99.90;;;;;;5085335;28;19923;-64
2021/07/21 07:27:21;;;;;;;;;;;14.50;99.90;;;;;;5086345;28;20073;-63
2021/07/21 07:29:47;;;;;;;;;;;14.60;99.90;;;;;;5082249;28;20006;-63
2021/07/21 07:32:12;;;;;;;;;;;14.70;99.90;;;;;;5087026;28;19927;-64
2021/07/21 07:34:38;;;;;;;;;;;14.70;99.90;;;;;;5085234;28;19923;-63
2021/07/21 07:37:04;;;;;;;;;;;14.80;99.90;;;;;;5088134;28;19916;-63
2021/07/21 07:39:30;;;;;;;;;;;14.90;99.90;;;;;;5089454;28;19920;-63
2021/07/21 07:41:59;;;;;;;;;;;15.00;99.90;;;;;;5087992;28;19912;-63
2021/07/21 07:44:24;;;;;;;;;;;15.10;99.90;;;;;;5089575;28;19928;-62
2021/07/21 07:46:50;;;;;;;;;;;15.20;99.90;;;;;;5088062;28;19927;-64
2021/07/21 07:49:15;;;;;;;;;;;15.20;99.90;;;;;;5080986;28;19912;-64
2021/07/21 07:51:40;;;;;;;;;;;15.30;99.90;;;;;;5089500;28;20033;-64
2021/07/21 07:54:06;;;;;;;;;;;15.30;99.90;;;;;;5090019;28;19920;-64
2021/07/21 07:56:32;;;;;;;;;;;15.30;99.90;;;;;;5086372;28;19917;-63
2021/07/21 07:58:58;;;;;;;;;;;15.30;99.90;;;;;;5069301;28;20007;-63
2021/07/21 08:01:24;;;;;;;;;;;15.40;99.90;;;;;;5067671;28;20007;-64
2021/07/21 08:03:49;;;;;;;;;;;15.40;99.90;;;;;;5068782;28;19999;-64
2021/07/21 08:06:15;;;;;;;;;;;15.40;99.90;;;;;;5086532;28;19920;-62
2021/07/21 08:08:40;;;;;;;;;;;15.40;99.90;;;;;;5089510;28;19938;-61
2021/07/21 08:11:06;;;;;;;;;;;15.50;99.90;;;;;;5088876;28;20011;-63
2021/07/21 08:13:32;;;;;;;;;;;15.50;99.90;;;;;;5088251;28;19926;-63
2021/07/21 08:15:58;;;;;;;;;;;15.50;99.90;;;;;;5088573;28;19915;-62
2021/07/21 08:18:23;;;;;;;;;;;15.60;99.90;;;;;;5088239;28;19916;-62
2021/07/21 08:20:49;;;;;;;;;;;15.70;99.90;;;;;;5088836;28;19927;-62
2021/07/21 08:23:15;;;;;;;;;;;15.70;99.90;;;;;;5088079;28;19923;-63
2021/07/21 08:25:43;;;;;;;;;;;15.80;99.60;;;;;;5088587;28;19966;-63
2021/07/21 08:28:10;;;;;;;;;;;15.90;98.20;;;;;;5087981;28;20382;-62
2021/07/21 08:30:35;;;;;;;;;;;16.00;98.50;;;;;;5086252;28;19923;-63
2021/07/21 08:33:01;;;;;;;;;;;16.10;99.90;;;;;;5087618;28;19916;-64
2021/07/21 08:35:28;;;;;;;;;;;16.10;97.10;;;;;;5084545;28;19977;-62
2021/07/21 08:37:55;;;;;;;;;;;16.20;99.50;;;;;;5088812;28;19999;-63
2021/07/21 08:40:21;;;;;;;;;;;16.30;98.10;;;;;;5089343;28;20379;-63
2021/07/21 08:42:47;;;;;;;;;;;16.30;96.50;;;;;;5088746;28;19931;-62
2021/07/21 08:45:14;;;;;;;;;;;16.30;96.90;;;;;;5088151;28;19916;-63
2021/07/21 08:47:40;;;;;;;;;;;16.30;96.80;;;;;;5086251;28;19967;-64
2021/07/21 08:50:06;;;;;;;;;;;16.40;97.10;;;;;;5088835;28;19966;-62
2021/07/21 08:52:32;;;;;;;;;;;16.40;97.40;;;;;;5087422;28;19916;-62
2021/07/21 08:54:58;;;;;;;;;;;16.40;97.60;;;;;;5088149;28;19930;-62
2021/07/21 08:57:25;;;;;;;;;;;16.50;97.90;;;;;;5077574;28;19916;-63
2021/07/21 08:59:51;;;;;;;;;;;16.50;95.40;;;;;;5067932;28;19923;-61
2021/07/21 09:02:17;;;;;;;;;;;16.50;95.00;;;;;;5066311;28;19972;-64
2021/07/21 09:04:42;;;;;;;;;;;16.60;96.60;;;;;;5068003;28;19916;-64
2021/07/21 09:07:09;;;;;;;;;;;16.60;96.60;;;;;;5088319;28;20531;-64
2021/07/21 09:09:35;;;;;;;;;;;16.60;97.30;;;;;;5087359;28;19923;-64
2021/07/21 09:12:01;;;;;;;;;;;16.80;96.50;;;;;;5086620;28;20430;-63
2021/07/21 09:14:27;;;;;;;;;;;16.90;95.50;;;;;;5087664;28;19967;-62
2021/07/21 09:17:11;;;;;;;;;;;17.00;95.80;;;;;;5087044;28;19916;-64
2021/07/21 09:19:38;;;;;;;;;;;17.00;96.40;;;;;;5087583;28;20290;-62
2021/07/21 09:22:13;;;;;;;;;;;17.10;96.00;;;;;;5086434;28;19976;-62
2021/07/21 09:24:38;;;;;;;;;;;17.10;96.10;;;;;;5082962;28;19963;-62
2021/07/21 09:27:04;;;;;;;;;;;17.10;94.80;;;;;;5086824;28;20066;-62
2021/07/21 09:29:29;;;;;;;;;;;17.20;95.80;;;;;;5087807;28;20334;-64
2021/07/21 09:31:59;;;;;;;;;;;17.30;95.30;;;;;;5085659;28;19927;-63
2021/07/21 09:34:26;;;;;;;;;;;17.20;94.30;;;;;;5084117;28;20060;-62
2021/07/21 09:37:08;;;;;;;;;;;17.30;95.10;;;;;;5085272;28;19974;-63
2021/07/21 09:39:35;;;;;;;;;;;17.20;94.20;;;;;;5085910;28;20407;-64
2021/07/21 09:42:00;;;;;;;;;;;17.30;94.90;;;;;;5085697;28;19920;-64
2021/07/21 09:44:36;;;;;;;;;;;17.40;94.10;;;;;;5087020;28;20652;-64
2021/07/21 09:47:12;;;;;;;;;;;17.40;95.50;;;;;;5087072;28;19930;-63
2021/07/21 09:49:39;;;;;;;;;;;17.60;95.40;;;;;;5087463;28;19916;-61
2021/07/21 09:52:22;;;;;;;;;;;17.60;95.40;;;;;;5085826;28;20375;-62
2021/07/21 09:55:06;;;;;;;;;;;17.50;94.60;;;;;;5086870;28;19916;-64
2021/07/21 09:57:33;;;;;;;;;;;17.70;96.10;;;;;;5086440;28;19912;-62
2021/07/21 09:59:59;;;;;;;;;;;17.70;94.20;;;;;;5087052;28;19923;-63
2021/07/21 10:02:25;;;;;;;;;;;17.70;96.50;;;;;;5088065;22;19958;-63
2021/07/21 10:04:51;;;;;;;;;;;17.80;95.40;;;;;;5057705;28;19972;-62
2021/07/21 10:10:10;;;;;;;;;;;17.60;93.60;;;;;;5026711;28;19986;-62
2021/07/21 10:12:36;;;;;;;;;;;17.60;94.20;;;;;;5026419;28;19921;-64
2021/07/21 10:15:01;;;;;;;;;;;17.80;94.70;;;;;;5026787;28;20300;-63
2021/07/21 10:17:27;;;;;;;;;;;17.90;93.70;;;;;;5026031;28;19917;-62
2021/07/21 10:19:53;;;;;;;;;;;18.10;95.00;;;;;;5026758;28;19921;-64
2021/07/21 10:22:18;;;;;;;;;;;18.30;96.00;;;;;;5025528;28;19925;-64
2021/07/21 10:24:44;;;;;;;;;;;18.50;94.40;;;;;;5030847;28;19993;-64
2021/07/21 10:27:10;;;;;;;;;;;18.40;94.40;;;;;;5046284;28;19970;-64
2021/07/21 10:29:36;;;;;;;;;;;18.30;95.20;;;;;;5045940;28;19990;-63
2021/07/21 10:32:02;;;;;;;;;;;18.30;94.60;;;;;;5044852;28;19999;-64
2021/07/21 10:34:27;;;;;;;;;;;18.20;93.40;;;;;;5045688;28;19969;-64
2021/07/21 10:36:53;;;;;;;;;;;18.00;94.40;;;;;;5037316;28;19920;-64
2021/07/21 10:39:21;;;;;;;;;;;18.00;93.90;;;;;;5043483;28;19924;-64
2021/07/21 10:41:47;;;;;;;;;;;18.00;94.20;;;;;;5045167;28;20011;-64
2021/07/21 10:44:13;;;;;;;;;;;18.10;95.30;;;;;;5045952;28;20011;-62
2021/07/21 10:46:43;;;;;;;;;;;18.20;96.00;;;;;;5044854;28;19916;-62
2021/07/21 10:49:49;;;;;;;;;;;18.30;95.90;;;;;;5045187;28;19925;-63
2021/07/21 10:52:44;;;;;;;;;;;18.20;94.60;;;;;;5044551;28;19971;-64
2021/07/21 10:55:22;;;;;;;;;;;18.10;92.50;;;;;;5039496;28;19956;-63
2021/07/21 11:00:23;;;;;;;;;;;18.10;94.30;;;;;;5025170;28;20288;-63
2021/07/21 11:02:50;;;;;;;;;;;18.20;95.60;;;;;;5023205;28;20451;-62
2021/07/21 11:05:32;;;;;;;;;;;18.20;94.70;;;;;;5035059;28;19916;-62
2021/07/21 11:07:58;;;;;;;;;;;18.20;93.20;;;;;;5036597;28;19920;-62
2021/07/21 11:10:43;;;;;;;;;;;18.30;94.80;;;;;;5043774;28;19916;-64
2021/07/21 11:13:10;;;;;;;;;;;18.40;92.10;;;;;;5043401;28;19927;-64
2021/07/21 11:15:38;;;;;;;;;;;18.50;94.40;;;;;;5044190;28;19931;-64
2021/07/21 11:18:22;;;;;;;;;;;18.60;95.50;;;;;;5044338;28;19921;-64
2021/07/21 11:20:59;;;;;;;;;;;18.70;92.80;;;;;;5036500;28;19939;-62
2021/07/21 11:23:43;;;;;;;;;;;18.70;94.20;;;;;;5044752;28;20459;-63
2021/07/21 11:26:28;;;;;;;;;;;18.80;95.40;;;;;;5028042;28;20335;-64
2021/07/21 11:28:54;;;;;;;;;;;18.80;95.00;;;;;;5025447;28;19925;-64
2021/07/21 11:31:39;;;;;;;;;;;18.80;95.00;;;;;;5023293;28;19917;-64
2021/07/21 11:34:11;;;;;;;;;;;18.70;94.80;;;;;;5024969;28;20008;-64
2021/07/21 11:36:40;;;;;;;;;;;18.70;95.20;;;;;;5037414;28;20361;-64
2021/07/21 11:39:06;;;;;;;;;;;18.70;95.80;;;;;;5045336;28;19925;-63
2021/07/21 11:41:44;;;;;;;;;;;18.50;94.50;;;;;;5043943;28;20372;-63
2021/07/21 11:44:30;;;;;;;;;;;18.60;95.00;;;;;;5045456;28;19916;-61
2021/07/21 11:46:56;;;;;;;;;;;18.50;94.50;;;;;;5040570;28;19924;-64
2021/07/21 11:49:23;;;;;;;;;;;18.60;95.20;;;;;;5044720;28;20280;-62
2021/07/21 11:51:52;;;;;;;;;;;18.50;95.20;;;;;;5043788;28;19916;-61
2021/07/21 11:54:19;;;;;;;;;;;18.50;96.40;;;;;;5045179;28;19921;-62
2021/07/21 11:56:46;;;;;;;;;;;18.50;95.20;;;;;;5040559;28;19924;-62
2021/07/21 11:59:11;;;;;;;;;;;18.40;94.10;;;;;;5025513;28;20032;-63
2021/07/21 12:01:36;;;;;;;;;;;18.40;93.90;;;;;;5023707;28;19993;-62
2021/07/21 12:04:02;;;;;;;;;;;18.40;94.00;;;;;;5025117;28;19983;-64
2021/07/21 12:06:27;;;;;;;;;;;18.50;95.60;;;;;;5038718;28;19925;-64
2021/07/21 12:08:55;;;;;;;;;;;18.40;96.30;;;;;;5042656;28;20336;-62
2021/07/21 12:11:24;;;;;;;;;;;18.40;95.80;;;;;;5043639;28;20373;-62
2021/07/21 12:14:00;;;;;;;;;;;18.50;94.30;;;;;;5046268;28;19916;-63
2021/07/21 12:16:26;;;;;;;;;;;18.50;94.20;;;;;;5047774;28;19966;-63
2021/07/21 12:18:59;;;;;;;;;;;18.50;93.20;;;;;;5047538;28;19920;-63
2021/07/21 12:21:29;;;;;;;;;;;18.50;93.50;;;;;;5047409;28;20283;-64
2021/07/21 12:23:59;;;;;;;;;;;18.70;94.40;;;;;;5046806;28;19972;-64
2021/07/21 12:26:24;;;;;;;;;;;18.80;94.80;;;;;;5048278;28;19920;-64
2021/07/21 12:28:56;;;;;;;;;;;19.00;94.60;;;;;;5048067;28;20499;-64
2021/07/21 12:31:26;;;;;;;;;;;19.10;94.40;;;;;;5047824;28;20288;-61
2021/07/21 12:33:51;;;;;;;;;;;19.30;92.20;;;;;;5048783;28;19916;-63
2021/07/21 12:36:17;;;;;;;;;;;19.30;92.90;;;;;;5043542;28;19925;-62
2021/07/21 12:38:42;;;;;;;;;;;19.20;93.00;;;;;;5041801;28;20030;-62
2021/07/21 12:41:09;;;;;;;;;;;18.90;93.40;;;;;;5046591;28;19920;-63
2021/07/21 12:43:35;;;;;;;;;;;19.00;94.40;;;;;;5048091;28;19920;-63
2021/07/21 12:46:00;;;;;;;;;;;18.90;94.20;;;;;;5043815;28;19917;-63
2021/07/21 12:48:26;;;;;;;;;;;18.90;95.00;;;;;;5047639;28;19932;-62
2021/07/21 12:50:51;;;;;;;;;;;18.90;94.40;;;;;;5047686;28;19913;-62
2021/07/21 12:53:19;;;;;;;;;;;18.90;94.30;;;;;;5046964;28;19990;-63
2021/07/21 12:55:47;;;;;;;;;;;18.80;94.10;;;;;;5047861;28;19912;-62
2021/07/21 12:58:13;;;;;;;;;;;18.90;94.70;;;;;;5047279;28;19920;-64
2021/07/21 13:00:41;;;;;;;;;;;19.20;93.30;;;;;;5046817;28;19913;-64
2021/07/21 13:03:07;;;;;;;;;;;19.40;93.50;;;;;;5046361;28;19927;-64
2021/07/21 13:05:43;;;;;;;;;;;19.70;93.30;;;;;;5047506;28;19916;-64
2021/07/21 13:08:13;;;;;;;;;;;19.90;90.60;;;;;;5039585;28;19988;-63
2021/07/21 13:10:40;;;;;;;;;;;20.10;92.40;;;;;;5047886;28;20384;-63
2021/07/21 13:13:06;;;;;;;;;;;20.30;91.70;;;;;;5047229;28;19916;-64
2021/07/21 13:15:32;;;;;;;;;;;20.20;91.40;;;;;;5046924;28;20295;-64
2021/07/21 13:18:24;;;;;;;;;;;19.90;93.20;;;;;;5028568;28;20000;-64
2021/07/21 13:20:50;;;;;;;;;;;19.70;94.40;;;;;;5034022;28;19978;-63
2021/07/21 13:23:15;;;;;;;;;;;19.50;93.60;;;;;;5046572;28;19917;-62
2021/07/21 13:25:42;;;;;;;;;;;19.40;93.50;;;;;;5047235;28;19916;-64
2021/07/21 13:28:36;;;;;;;;;;;19.30;93.30;;;;;;5046919;28;19920;-64
2021/07/21 13:31:12;;;;;;;;;;;19.10;94.70;;;;;;5008213;28;20378;-64
2021/07/21 13:33:38;;;;;;;;;;;19.20;93.70;;;;;;5046849;28;19964;-63
2021/07/21 13:36:11;;;;;;;;;;;19.00;93.60;;;;;;5044971;28;20314;-63
2021/07/21 13:38:36;;;;;;;;;;;19.00;94.80;;;;;;5043063;28;19921;-64
2021/07/21 13:41:09;;;;;;;;;;;19.00;93.20;;;;;;5046829;28;19923;-64
2021/07/21 13:43:35;;;;;;;;;;;19.00;94.60;;;;;;5047117;28;20475;-64
2021/07/21 13:46:19;;;;;;;;;;;19.10;95.50;;;;;;5046581;28;19920;-64
2021/07/21 13:48:53;;;;;;;;;;;19.00;93.30;;;;;;5046836;28;19974;-64
2021/07/21 13:51:19;;;;;;;;;;;19.00;93.90;;;;;;5045742;28;19921;-62
2021/07/21 13:53:44;;;;;;;;;;;19.10;96.00;;;;;;5047031;28;19917;-62
2021/07/21 13:56:10;;;;;;;;;;;19.10;93.40;;;;;;5046831;28;19916;-62
2021/07/21 13:58:35;;;;;;;;;;;19.10;93.60;;;;;;5046827;28;19920;-62
2021/07/21 14:01:01;;;;;;;;;;;19.10;94.30;;;;;;5045450;28;20277;-61
2021/07/21 14:03:26;;;;;;;;;;;19.10;93.80;;;;;;5046043;28;20015;-60
2021/07/21 14:05:52;;;;;;;;;;;19.10;93.30;;;;;;5045659;28;19917;-62
2021/07/21 14:08:18;;;;;;;;;;;19.20;93.80;;;;;;5027107;28;19968;-63
2021/07/21 14:10:43;;;;;;;;;;;19.20;93.90;;;;;;5026191;28;19917;-64
2021/07/21 14:13:09;;;;;;;;;;;19.20;94.10;;;;;;5026589;28;20305;-62
2021/07/21 14:15:35;;;;;;;;;;;19.20;93.70;;;;;;5026542;28;19924;-62
2021/07/21 14:18:00;;;;;;;;;;;19.00;93.30;;;;;;5026271;28;19920;-62
2021/07/21 14:20:26;;;;;;;;;;;18.80;94.00;;;;;;5030465;28;19920;-62
2021/07/21 14:22:51;;;;;;;;;;;18.90;94.90;;;;;;5045731;28;19996;-62
2021/07/21 14:25:17;;;;;;;;;;;18.90;95.00;;;;;;5045760;28;19916;-64
2021/07/21 14:27:42;;;;;;;;;;;18.90;94.60;;;;;;5045942;28;19921;-63
2021/07/21 14:30:09;;;;;;;;;;;19.00;95.50;;;;;;5048392;28;19978;-62